createdAt,value
2023-03-05T00:01:39.937Z,101230.94
2023-03-05T00:04:13.941Z,101228.31
2023-03-05T00:06:43.963Z,101230.06
2023-03-05T00:09:14.703Z,101220.56
2023-03-05T00:11:41.349Z,101224.88
2023-03-05T00:14:09.145Z,101217.97
2023-03-05T00:16:36.146Z,101208.50
2023-03-05T00:19:06.128Z,101213.72
2023-03-05T00:21:38.605Z,101216.25
2023-03-05T00:24:08.569Z,101213.63
2023-03-05T00:26:40.773Z,101208.41
2023-03-05T00:29:12.928Z,101204.09
2023-03-05T00:31:40.553Z,101204.09
2023-03-05T00:34:15.373Z,101204.06
2023-03-05T00:36:47.554Z,101199.69
2023-03-05T00:39:14.629Z,101190.97
2023-03-05T00:41:41.629Z,101189.19
2023-03-05T00:44:08.840Z,101191.75
2023-03-05T00:46:40.350Z,101184.84
2023-03-05T00:49:07.958Z,101187.34
2023-03-05T00:51:37.968Z,101179.56
2023-03-05T00:54:08.527Z,101178.72
2023-03-05T00:56:35.207Z,101173.44
2023-03-05T00:59:07.307Z,101165.69
2023-03-05T01:01:36.973Z,101159.66
2023-03-05T01:04:03.703Z,101160.56
2023-03-05T01:06:43.354Z,101156.22
2023-03-05T01:09:12.967Z,101156.16
2023-03-05T01:11:42.841Z,101151.91
2023-03-05T01:14:12.055Z,101149.22
2023-03-05T01:16:46.457Z,101140.63
2023-03-05T01:19:16.592Z,101140.63
2023-03-05T01:21:49.152Z,101132.84
2023-03-05T01:24:15.728Z,101132.88
2023-03-05T01:26:45.366Z,101119.91
2023-03-05T01:29:12.488Z,101130.38
2023-03-05T01:31:39.244Z,101126.03
2023-03-05T01:34:06.464Z,101125.19
2023-03-05T01:36:33.438Z,101126.91
2023-03-05T01:39:00.120Z,101119.13
2023-03-05T01:41:36.402Z,101119.16
2023-03-05T01:44:05.312Z,101109.72
2023-03-05T01:46:44.999Z,101117.50
2023-03-05T01:49:17.682Z,101114.06
2023-03-05T01:52:02.317Z,101114.03
2023-03-05T01:54:34.328Z,101107.16
2023-03-05T01:57:08.483Z,101100.25
2023-03-05T01:59:37.236Z,101110.59
2023-03-05T02:02:11.267Z,101101.97
2023-03-05T02:04:54.899Z,101095.94
2023-03-05T02:07:30.846Z,101095.06
2023-03-05T02:09:57.475Z,101098.53
2023-03-05T02:12:24.276Z,101101.09
2023-03-05T02:14:59.143Z,101088.16
2023-03-05T02:17:29.088Z,101088.19
2023-03-05T02:20:05.636Z,101082.09
2023-03-05T02:22:32.366Z,101096.75
2023-03-05T02:25:04.779Z,101088.16
2023-03-05T02:27:35.727Z,101088.19
2023-03-05T02:30:03.532Z,101089.00
2023-03-05T02:32:30.141Z,101091.50
2023-03-05T02:34:56.778Z,101083.72
2023-03-05T02:37:24.442Z,101079.41
2023-03-05T02:39:51.660Z,101077.72
2023-03-05T02:42:22.962Z,101076.00
2023-03-05T02:44:49.621Z,101074.25
2023-03-05T02:47:16.234Z,101069.94
2023-03-05T02:49:42.928Z,101075.13
2023-03-05T02:52:09.617Z,101069.13
2023-03-05T02:54:36.294Z,101068.22
2023-03-05T02:57:02.967Z,101060.44
2023-03-05T02:59:29.706Z,101059.53
2023-03-05T03:01:57.887Z,101064.72
2023-03-05T03:04:26.015Z,101059.53
2023-03-05T03:06:58.736Z,101052.66
2023-03-05T03:09:27.362Z,101054.38
2023-03-05T03:11:54.084Z,101042.34
2023-03-05T03:14:21.171Z,101049.22
2023-03-05T03:16:51.507Z,101050.06
2023-03-05T03:19:18.157Z,101052.63
2023-03-05T03:21:45.150Z,101046.63
2023-03-05T03:24:12.214Z,101038.81
2023-03-05T03:26:38.960Z,101033.66
2023-03-05T03:29:05.549Z,101035.44
2023-03-05T03:31:32.248Z,101026.75
2023-03-05T03:33:58.944Z,101025.88
2023-03-05T03:36:28.245Z,101025.03
2023-03-05T03:38:54.881Z,101024.19
2023-03-05T03:41:22.769Z,101023.34
2023-03-05T03:43:52.503Z,101020.72
2023-03-05T03:46:19.185Z,101006.09
2023-03-05T03:48:49.579Z,101011.25
2023-03-05T03:51:16.302Z,100998.31
2023-03-05T03:53:42.964Z,101004.34
2023-03-05T03:56:16.475Z,101001.72
2023-03-05T03:58:46.504Z,101002.56
2023-03-05T04:01:13.161Z,101006.91
2023-03-05T04:03:48.939Z,100991.41
2023-03-05T04:06:15.624Z,100994.78
2023-03-05T04:08:42.281Z,100998.25
2023-03-05T04:11:10.043Z,100986.19
2023-03-05T04:13:36.714Z,100997.41
2023-03-05T04:16:04.538Z,100985.31
2023-03-05T04:18:32.619Z,100987.84
2023-03-05T04:20:59.380Z,100987.00
2023-03-05T04:23:35.345Z,100980.03
2023-03-05T04:26:02.296Z,100984.31
2023-03-05T04:28:28.941Z,100983.44
2023-03-05T04:30:55.666Z,100978.25
2023-03-05T04:33:22.333Z,100975.63
2023-03-05T04:35:55.480Z,100978.16
2023-03-05T04:38:27.634Z,100973.84
2023-03-05T04:40:57.392Z,100975.53
2023-03-05T04:43:24.013Z,100971.19
2023-03-05T04:45:56.036Z,100969.47
2023-03-05T04:48:22.871Z,100962.47
2023-03-05T04:50:52.274Z,100960.81
2023-03-05T04:53:18.896Z,100965.06
2023-03-05T04:55:55.102Z,100959.03
2023-03-05T04:58:26.392Z,100957.25
2023-03-05T05:00:53.066Z,100960.72
2023-03-05T05:03:25.662Z,100954.75
2023-03-05T05:05:59.333Z,100953.91
2023-03-05T05:08:26.248Z,100951.34
2023-03-05T05:11:01.908Z,100959.88
2023-03-05T05:13:28.771Z,100962.56
2023-03-05T05:15:56.200Z,100969.44
2023-03-05T05:18:23.857Z,100962.56
2023-03-05T05:20:50.561Z,100960.88
2023-03-05T05:23:19.574Z,100960.88
2023-03-05T05:25:49.224Z,100958.31
2023-03-05T05:28:15.812Z,100955.75
2023-03-05T05:30:47.939Z,100955.69
2023-03-05T05:33:18.725Z,100952.16
2023-03-05T05:35:45.510Z,100949.56
2023-03-05T05:38:15.056Z,100954.81
2023-03-05T05:40:42.160Z,100963.47
2023-03-05T05:43:12.193Z,100960.00
2023-03-05T05:45:39.170Z,100953.94
2023-03-05T05:48:07.097Z,100964.31
2023-03-05T05:50:33.820Z,100950.53
2023-03-05T05:53:04.963Z,100954.81
2023-03-05T05:55:31.604Z,100961.78
2023-03-05T05:58:05.147Z,100953.19
2023-03-05T06:00:31.772Z,100958.34
2023-03-05T06:02:58.439Z,100956.66
2023-03-05T06:05:25.582Z,100955.78
2023-03-05T06:07:52.185Z,100963.59
2023-03-05T06:10:18.951Z,100962.75
2023-03-05T06:12:46.358Z,100967.06
2023-03-05T06:15:13.432Z,100973.09
2023-03-05T06:17:40.091Z,100959.34
2023-03-05T06:20:07.746Z,100956.88
2023-03-05T06:22:39.527Z,100960.28
2023-03-05T06:25:08.960Z,100954.25
2023-03-05T06:27:40.229Z,100956.88
2023-03-05T06:30:07.718Z,100958.59
2023-03-05T06:32:38.014Z,100955.19
2023-03-05T06:35:09.716Z,100954.34
2023-03-05T06:37:36.395Z,100942.28
2023-03-05T06:40:04.475Z,100945.78
2023-03-05T06:42:31.105Z,100941.47
2023-03-05T06:44:57.794Z,100944.91
2023-03-05T06:47:24.444Z,100943.25
2023-03-05T06:49:51.091Z,100948.41
2023-03-05T06:52:17.740Z,100950.13
2023-03-05T06:54:44.497Z,100940.69
2023-03-05T06:57:19.955Z,100945.00
2023-03-05T06:59:46.548Z,100951.06
2023-03-05T07:02:13.863Z,100948.50
2023-03-05T07:04:46.774Z,100946.78
2023-03-05T07:07:13.458Z,100944.22
2023-03-05T07:09:43.018Z,100953.69
2023-03-05T07:12:11.918Z,100943.38
2023-03-05T07:14:39.411Z,100952.88
2023-03-05T07:17:07.116Z,100960.59
2023-03-05T07:19:33.983Z,100958.88
2023-03-05T07:22:00.659Z,100954.59
2023-03-05T07:24:30.164Z,100958.94
2023-03-05T07:26:57.652Z,100963.25
2023-03-05T07:29:26.497Z,100951.19
2023-03-05T07:31:54.109Z,100968.41
2023-03-05T07:34:21.844Z,100953.78
2023-03-05T07:36:52.744Z,100963.25
2023-03-05T07:39:19.520Z,100952.91
2023-03-05T07:41:47.809Z,100955.47
2023-03-05T07:44:14.681Z,100955.50
2023-03-05T07:46:41.960Z,100952.94
2023-03-05T07:49:08.856Z,100955.50
2023-03-05T07:51:35.577Z,100948.63
2023-03-05T07:54:02.593Z,100956.41
2023-03-05T07:56:32.201Z,100952.97
2023-03-05T07:59:00.317Z,100957.25
2023-03-05T08:01:27.369Z,100955.56
2023-03-05T08:03:54.276Z,100944.34
2023-03-05T08:06:20.951Z,100947.78
2023-03-05T08:08:47.762Z,100947.78
2023-03-05T08:11:18.646Z,100950.38
2023-03-05T08:13:45.534Z,100952.13
2023-03-05T08:16:24.421Z,100954.72
2023-03-05T08:18:53.712Z,100952.97
2023-03-05T08:21:23.152Z,100964.19
2023-03-05T08:23:50.188Z,100950.31
2023-03-05T08:26:22.737Z,100955.44
2023-03-05T08:28:49.651Z,100951.16
2023-03-05T08:31:18.568Z,100951.19
2023-03-05T08:33:45.879Z,100947.75
2023-03-05T08:36:13.343Z,100939.03
2023-03-05T08:38:44.469Z,100932.59
2023-03-05T08:41:11.172Z,100929.91
2023-03-05T08:43:37.874Z,100924.09
2023-03-05T08:46:04.899Z,100916.22
2023-03-05T08:48:32.430Z,100922.97
2023-03-05T08:51:12.811Z,100917.91
2023-03-05T08:53:39.814Z,100918.84
2023-03-05T08:56:09.795Z,100907.50
2023-03-05T08:58:36.922Z,100907.56
2023-03-05T09:01:04.100Z,100905.75
2023-03-05T09:03:30.965Z,100915.31
2023-03-05T09:06:02.506Z,100906.94
2023-03-05T09:08:29.808Z,100896.56
2023-03-05T09:10:57.309Z,100887.84
2023-03-05T09:13:24.209Z,100883.44
2023-03-05T09:15:57.849Z,100894.34
2023-03-05T09:18:24.675Z,100889.44
2023-03-05T09:20:51.338Z,100897.81
2023-03-05T09:23:24.284Z,100886.75
2023-03-05T09:25:51.252Z,100882.28
2023-03-05T09:28:17.929Z,100880.72
2023-03-05T09:30:44.645Z,100874.31
2023-03-05T09:33:15.283Z,100886.56
2023-03-05T09:35:41.946Z,100885.13
2023-03-05T09:38:08.684Z,100884.44
2023-03-05T09:40:49.297Z,100899.22
2023-03-05T09:43:42.146Z,100887.16
2023-03-05T09:46:27.311Z,100889.84
2023-03-05T09:49:10.534Z,100892.41
2023-03-05T09:51:40.525Z,100890.72
2023-03-05T09:54:17.548Z,100882.03
2023-03-05T09:57:05.594Z,100871.66
2023-03-05T09:59:57.847Z,100874.28
2023-03-05T10:02:37.595Z,100876.81
2023-03-05T10:05:18.156Z,100858.50
2023-03-05T10:07:49.872Z,100868.47
2023-03-05T10:10:46.287Z,100865.66
2023-03-05T10:13:38.140Z,100868.56
2023-03-05T10:16:31.137Z,100861.63
2023-03-05T10:19:28.168Z,100862.75
2023-03-05T10:22:20.849Z,100865.47
2023-03-05T10:24:56.238Z,100856.88
2023-03-05T10:27:38.056Z,100857.66
2023-03-05T10:30:26.862Z,100862.00
2023-03-05T10:33:03.282Z,100842.94
2023-03-05T10:35:32.927Z,100846.34
2023-03-05T10:38:14.307Z,100839.50
2023-03-05T10:40:44.626Z,100844.75
2023-03-05T10:43:36.741Z,100830.94
2023-03-05T10:46:04.779Z,100837.88
2023-03-05T10:48:37.858Z,100839.66
2023-03-05T10:51:16.279Z,100846.69
2023-03-05T10:53:55.318Z,100833.72
2023-03-05T10:56:24.354Z,100842.38
2023-03-05T10:58:52.837Z,100831.13
2023-03-05T11:01:24.313Z,100832.84
2023-03-05T11:03:58.705Z,100833.63
2023-03-05T11:06:34.142Z,100826.59
2023-03-05T11:09:21.802Z,100824.91
2023-03-05T11:12:16.224Z,100829.28
2023-03-05T11:15:12.420Z,100825.91
2023-03-05T11:17:58.964Z,100819.13
2023-03-05T11:20:30.894Z,100816.50
2023-03-05T11:23:12.995Z,100819.13
2023-03-05T11:25:57.252Z,100820.88
2023-03-05T11:28:41.634Z,100820.88
2023-03-05T11:31:20.868Z,100825.19
2023-03-05T11:34:02.547Z,100816.50
2023-03-05T11:36:36.031Z,100816.50
2023-03-05T11:39:08.305Z,100812.94
2023-03-05T11:41:42.388Z,100803.50
2023-03-05T11:44:52.791Z,100800.03
2023-03-05T11:47:19.461Z,100802.63
2023-03-05T11:49:49.204Z,100798.31
2023-03-05T11:52:25.226Z,100793.13
2023-03-05T11:54:54.932Z,100792.25
2023-03-05T11:57:24.820Z,100796.59
2023-03-05T11:59:55.328Z,100782.81
2023-03-05T12:02:27.982Z,100783.69
2023-03-05T12:04:56.146Z,100782.69
2023-03-05T12:07:35.009Z,100778.25
2023-03-05T12:10:02.342Z,100778.22
2023-03-05T12:12:51.426Z,100772.31
2023-03-05T12:15:18.012Z,100773.13
2023-03-05T12:18:13.208Z,100770.53
2023-03-05T12:20:55.771Z,100768.81
2023-03-05T12:23:23.078Z,100767.16
2023-03-05T12:25:56.581Z,100769.81
2023-03-05T12:28:29.225Z,100779.41
2023-03-05T12:31:20.902Z,100767.44
2023-03-05T12:33:47.646Z,100758.78
2023-03-05T12:36:33.127Z,100752.75
2023-03-05T12:39:02.115Z,100747.56
2023-03-05T12:41:33.066Z,100746.50
2023-03-05T12:44:10.591Z,100744.47
2023-03-05T12:46:44.826Z,100733.59
2023-03-05T12:49:21.282Z,100731.13
2023-03-05T12:51:56.856Z,100724.69
2023-03-05T12:54:42.079Z,100726.56
2023-03-05T12:57:26.677Z,100719.78
2023-03-05T13:00:00.817Z,100724.84
2023-03-05T13:02:31.392Z,100720.75
2023-03-05T13:05:02.599Z,100721.56
2023-03-05T13:07:29.321Z,100718.00
2023-03-05T13:10:00.118Z,100708.34
2023-03-05T13:12:29.073Z,100711.88
2023-03-05T13:15:02.296Z,100716.25
2023-03-05T13:17:33.800Z,100721.59
2023-03-05T13:20:02.309Z,100725.06
2023-03-05T13:22:29.165Z,100719.16
2023-03-05T13:25:17.167Z,100728.75
2023-03-05T13:27:43.999Z,100721.06
2023-03-05T13:30:22.969Z,100722.03
2023-03-05T13:32:52.190Z,100715.88
2023-03-05T13:35:23.736Z,100716.38
2023-03-05T13:37:50.670Z,100713.00
2023-03-05T13:40:25.082Z,100712.06
2023-03-05T13:42:53.566Z,100701.47
2023-03-05T13:45:23.089Z,100708.59
2023-03-05T13:48:07.891Z,100697.44
2023-03-05T13:50:35.481Z,100700.09
2023-03-05T13:53:39.867Z,100700.03
2023-03-05T13:56:12.753Z,100701.94
2023-03-05T13:58:55.152Z,100696.50
2023-03-05T14:01:56.120Z,100687.84
2023-03-05T14:04:29.413Z,100690.59
2023-03-05T14:07:04.647Z,100692.38
2023-03-05T14:09:56.753Z,100692.19
2023-03-05T14:12:37.184Z,100686.13
2023-03-05T14:15:20.994Z,100690.63
2023-03-05T14:17:47.741Z,100674.88
2023-03-05T14:20:14.739Z,100683.44
2023-03-05T14:22:48.208Z,100679.06
2023-03-05T14:25:42.573Z,100679.94
2023-03-05T14:28:18.133Z,100682.91
2023-03-05T14:30:47.235Z,100681.00
2023-03-05T14:33:15.125Z,100677.53
2023-03-05T14:35:48.939Z,100679.50
2023-03-05T14:38:23.865Z,100684.59
2023-03-05T14:40:50.965Z,100680.25
2023-03-05T14:43:17.682Z,100663.94
2023-03-05T14:45:44.819Z,100675.16
2023-03-05T14:48:13.954Z,100685.56
2023-03-05T14:50:56.778Z,100684.78
2023-03-05T14:53:31.638Z,100682.31
2023-03-05T14:55:58.272Z,100679.00
2023-03-05T14:58:28.788Z,100679.00
2023-03-05T15:00:56.908Z,100669.53
2023-03-05T15:03:24.293Z,100667.00
2023-03-05T15:05:54.508Z,100657.53
2023-03-05T15:08:30.298Z,100661.06
2023-03-05T15:10:57.809Z,100657.63
2023-03-05T15:13:30.441Z,100653.38
2023-03-05T15:15:57.411Z,100650.63
2023-03-05T15:18:24.055Z,100642.06
2023-03-05T15:20:55.220Z,100637.81
2023-03-05T15:23:21.866Z,100644.69
2023-03-05T15:25:48.649Z,100639.50
2023-03-05T15:28:15.879Z,100648.22
2023-03-05T15:30:45.850Z,100642.22
2023-03-05T15:33:15.127Z,100638.69
2023-03-05T15:35:44.767Z,100645.59
2023-03-05T15:38:11.630Z,100644.75
2023-03-05T15:40:38.276Z,100642.22
2023-03-05T15:43:04.905Z,100643.88
2023-03-05T15:45:31.606Z,100630.88
2023-03-05T15:47:58.890Z,100634.47
2023-03-05T15:50:25.577Z,100632.75
2023-03-05T15:52:52.433Z,100637.91
2023-03-05T15:55:19.201Z,100632.75
2023-03-05T15:57:48.862Z,100634.41
2023-03-05T16:00:18.918Z,100630.06
2023-03-05T16:02:45.585Z,100629.19
2023-03-05T16:05:12.320Z,100634.47
2023-03-05T16:07:42.090Z,100637.84
2023-03-05T16:10:12.151Z,100634.47
2023-03-05T16:12:41.203Z,100629.38
2023-03-05T16:15:10.221Z,100627.63
2023-03-05T16:17:37.492Z,100628.50
2023-03-05T16:20:05.236Z,100635.41
2023-03-05T16:22:32.688Z,100635.41
2023-03-05T16:25:01.358Z,100637.06
2023-03-05T16:27:28.500Z,100631.03
2023-03-05T16:29:55.250Z,100625.03
2023-03-05T16:32:21.951Z,100629.38
2023-03-05T16:34:48.581Z,100625.97
2023-03-05T16:37:21.517Z,100627.69
2023-03-05T16:39:48.763Z,100613.97
2023-03-05T16:42:16.212Z,100619.13
2023-03-05T16:44:43.994Z,100619.19
2023-03-05T16:47:12.368Z,100628.66
2023-03-05T16:49:39.824Z,100622.63
2023-03-05T16:52:18.441Z,100621.81
2023-03-05T16:54:46.945Z,100619.28
2023-03-05T16:57:13.999Z,100621.84
2023-03-05T16:59:41.000Z,100619.28
2023-03-05T17:02:08.154Z,100631.34
2023-03-05T17:04:35.495Z,100635.66
2023-03-05T17:07:04.228Z,100631.34
2023-03-05T17:09:31.023Z,100623.59
2023-03-05T17:11:57.679Z,100618.44
2023-03-05T17:14:24.421Z,100615.00
2023-03-05T17:16:51.225Z,100634.81
2023-03-05T17:19:17.916Z,100627.94
2023-03-05T17:21:45.035Z,100628.81
2023-03-05T17:24:12.070Z,100638.28
2023-03-05T17:26:38.813Z,100634.84
2023-03-05T17:29:06.496Z,100641.75
2023-03-05T17:31:34.149Z,100635.69
2023-03-05T17:34:01.017Z,100635.69
2023-03-05T17:36:27.748Z,100629.66
2023-03-05T17:38:57.194Z,100626.22
2023-03-05T17:41:24.319Z,100632.25
2023-03-05T17:43:52.416Z,100627.94
2023-03-05T17:46:19.094Z,100628.81
2023-03-05T17:48:46.291Z,100628.84
2023-03-05T17:51:14.242Z,100623.66
2023-03-05T17:53:44.580Z,100631.41
2023-03-05T17:56:23.414Z,100628.84
2023-03-05T17:58:50.888Z,100623.66
2023-03-05T18:01:29.618Z,100622.81
2023-03-05T18:03:57.047Z,100615.94
2023-03-05T18:06:24.805Z,100618.50
2023-03-05T18:08:51.962Z,100627.97
2023-03-05T18:11:19.245Z,100621.06
2023-03-05T18:13:45.909Z,100616.75
2023-03-05T18:16:16.886Z,100613.31
2023-03-05T18:18:44.752Z,100613.31
2023-03-05T18:21:11.507Z,100608.13
2023-03-05T18:23:38.150Z,100608.13
2023-03-05T18:26:07.860Z,100610.69
2023-03-05T18:28:34.548Z,100611.53
2023-03-05T18:33:33.746Z,100617.56
2023-03-05T18:36:00.389Z,100613.28
2023-03-05T18:38:29.619Z,100614.13
2023-03-05T18:40:57.139Z,100602.94
2023-03-05T18:43:24.541Z,100602.94
2023-03-05T18:45:53.101Z,100610.66
2023-03-05T18:48:23.012Z,100603.81
2023-03-05T18:50:54.068Z,100601.22
2023-03-05T18:53:21.901Z,100603.81
2023-03-05T18:55:52.716Z,100600.38
2023-03-05T18:58:19.458Z,100608.13
2023-03-05T19:00:47.712Z,100599.50
2023-03-05T19:03:15.806Z,100596.06
2023-03-05T19:05:42.604Z,100600.34
2023-03-05T19:08:17.982Z,100594.31
2023-03-05T19:10:44.768Z,100597.75
2023-03-05T19:13:28.830Z,100593.44
2023-03-05T19:15:56.438Z,100591.72
2023-03-05T19:18:33.699Z,100582.28
2023-03-05T19:21:00.351Z,100583.13
2023-03-05T19:23:27.201Z,100578.78
2023-03-05T19:25:53.916Z,100575.38
2023-03-05T19:28:21.328Z,100574.50
2023-03-05T19:30:50.683Z,100583.94
2023-03-05T19:33:17.401Z,100583.94
2023-03-05T19:35:44.288Z,100574.50
2023-03-05T19:38:10.902Z,100577.06
2023-03-05T19:40:42.656Z,100586.53
2023-03-05T19:43:09.386Z,100584.81
2023-03-05T19:45:36.060Z,100577.94
2023-03-05T19:50:34.775Z,100577.91
2023-03-05T19:53:01.761Z,100572.78
2023-03-05T19:55:28.681Z,100569.38
2023-03-05T19:57:55.522Z,100577.13
2023-03-05T20:00:22.593Z,100567.63
2023-03-05T20:02:49.239Z,100573.66
2023-03-05T20:05:23.105Z,100562.50
2023-03-05T20:07:49.768Z,100564.22
2023-03-05T20:10:16.405Z,100565.06
2023-03-05T20:12:44.145Z,100559.91
2023-03-05T20:15:11.109Z,100560.75
2023-03-05T20:17:37.828Z,100559.91
2023-03-05T20:20:05.035Z,100557.31
2023-03-05T20:22:31.659Z,100557.31
2023-03-05T20:24:58.332Z,100557.34
2023-03-05T20:27:28.357Z,100553.88
2023-03-05T20:29:55.090Z,100564.22
2023-03-05T20:32:21.731Z,100557.34
2023-03-05T20:34:51.056Z,100550.47
2023-03-05T20:37:18.004Z,100550.47
2023-03-05T20:39:44.727Z,100554.75
2023-03-05T20:42:11.407Z,100546.16
2023-03-05T20:44:44.049Z,100540.13
2023-03-05T20:47:26.137Z,100541.00
2023-03-05T20:49:56.054Z,100534.13
2023-03-05T20:52:22.797Z,100534.13
2023-03-05T20:54:49.459Z,100525.50
2023-03-05T20:57:16.099Z,100525.53
2023-03-05T20:59:45.646Z,100519.50
2023-03-05T21:02:12.642Z,100521.22
2023-03-05T21:04:39.325Z,100521.25
2023-03-05T21:07:10.246Z,100521.22
2023-03-05T21:09:36.931Z,100511.75
2023-03-05T21:12:03.789Z,100510.91
2023-03-05T21:14:36.263Z,100507.47
2023-03-05T21:17:03.131Z,100508.34
2023-03-05T21:19:33.748Z,100504.03
2023-03-05T21:22:00.651Z,100505.78
2023-03-05T21:24:39.881Z,100503.19
2023-03-05T21:27:12.338Z,100501.47
2023-03-05T21:29:38.947Z,100498.03
2023-03-05T21:32:05.738Z,100491.16
2023-03-05T21:34:32.436Z,100490.25
2023-03-05T21:37:05.240Z,100481.69
2023-03-05T21:39:31.888Z,100490.28
2023-03-05T21:41:59.539Z,100483.41
2023-03-05T21:44:26.771Z,100479.09
2023-03-05T21:46:53.408Z,100479.94
2023-03-05T21:49:20.054Z,100470.50
2023-03-05T21:52:05.995Z,100474.78
2023-03-05T21:54:32.712Z,100466.19
2023-03-05T21:56:59.452Z,100465.31
2023-03-05T21:59:28.962Z,100455.00
2023-03-05T22:01:56.124Z,100452.44
2023-03-05T22:04:22.769Z,100445.53
2023-03-05T22:06:49.500Z,100447.25
2023-03-05T22:09:16.154Z,100442.09
2023-03-05T22:11:43.175Z,100434.38
2023-03-05T22:14:11.439Z,100428.34
2023-03-05T22:16:38.275Z,100430.94
2023-03-05T22:19:05.674Z,100431.78
2023-03-05T22:21:35.901Z,100427.50
2023-03-05T22:24:02.603Z,100419.75
2023-03-05T22:26:38.459Z,100407.72
2023-03-05T22:29:11.472Z,100414.59
2023-03-05T22:31:40.756Z,100409.44
2023-03-05T22:34:07.439Z,100402.53
2023-03-05T22:36:34.118Z,100405.13
2023-03-05T22:39:00.852Z,100405.13
2023-03-05T22:41:30.742Z,100393.94
2023-03-05T22:43:57.441Z,100391.38
2023-03-05T22:46:27.175Z,100396.53
2023-03-05T22:48:54.160Z,100393.94
2023-03-05T22:51:29.539Z,100385.34
2023-03-05T22:53:56.558Z,100386.19
2023-03-05T22:56:23.304Z,100380.22
2023-03-05T22:58:50.024Z,100376.75
2023-03-05T23:01:24.500Z,100383.63
2023-03-05T23:03:59.357Z,100369.88
2023-03-05T23:06:26.016Z,100368.16
2023-03-05T23:08:53.518Z,100359.59
2023-03-05T23:11:20.182Z,100359.56
2023-03-05T23:13:46.829Z,100355.28
2023-03-05T23:16:13.497Z,100358.72
2023-03-05T23:18:40.708Z,100353.56
2023-03-05T23:21:07.315Z,100349.25
2023-03-05T23:23:33.944Z,100347.53
2023-03-05T23:26:03.511Z,100351.84
2023-03-05T23:28:30.425Z,100344.94
2023-03-05T23:30:58.210Z,100354.41
2023-03-05T23:33:28.813Z,100348.41
2023-03-05T23:36:00.043Z,100336.38
2023-03-05T23:38:33.491Z,100333.78
2023-03-05T23:41:03.749Z,100331.19
2023-03-05T23:43:31.207Z,100327.78
2023-03-05T23:45:58.054Z,100337.22
2023-03-05T23:48:26.529Z,100320.03
2023-03-05T23:50:53.402Z,100326.03
2023-03-05T23:53:33.407Z,100336.34
2023-03-05T23:56:00.154Z,100322.59
2023-03-05T23:58:26.828Z,100319.16
